sensor_id;sensor_type;location;lat;lon;timestamp;P1;durP1;ratioP1;P2;durP2;ratioP2
6105;SDS011;3083;51.508;7.966;2023-07-13T00:01:29;8.20;;;5.13;;
6105;SDS011;3083;51.508;7.966;2023-07-13T00:03:57;7.13;;;5.00;;
6105;SDS011;3083;51.508;7.966;2023-07-13T00:06:25;8.10;;;4.90;;
6105;SDS011;3083;51.508;7.966;2023-07-13T00:08:57;7.83;;;4.70;;
6105;SDS011;3083;51.508;7.966;2023-07-13T00:11:24;10.70;;;5.00;;
6105;SDS011;3083;51.508;7.966;2023-07-13T00:13:51;10.00;;;4.70;;
6105;SDS011;3083;51.508;7.966;2023-07-13T00:16:18;10.20;;;4.40;;
6105;SDS011;3083;51.508;7.966;2023-07-13T00:18:46;12.53;;;4.67;;
6105;SDS011;3083;51.508;7.966;2023-07-13T00:21:13;7.23;;;4.07;;
6105;SDS011;3083;51.508;7.966;2023-07-13T00:23:42;6.93;;;3.90;;
6105;SDS011;3083;51.508;7.966;2023-07-13T00:26:09;10.63;;;4.13;;
6105;SDS011;3083;51.508;7.966;2023-07-13T00:28:37;9.83;;;4.50;;
6105;SDS011;3083;51.508;7.966;2023-07-13T00:31:06;8.30;;;3.80;;
6105;SDS011;3083;51.508;7.966;2023-07-13T00:33:34;9.43;;;3.53;;
6105;SDS011;3083;51.508;7.966;2023-07-13T00:36:00;6.57;;;3.83;;
6105;SDS011;3083;51.508;7.966;2023-07-13T00:38:27;6.03;;;3.43;;
6105;SDS011;3083;51.508;7.966;2023-07-13T00:40:56;8.87;;;3.70;;
6105;SDS011;3083;51.508;7.966;2023-07-13T00:43:23;7.50;;;3.90;;
6105;SDS011;3083;51.508;7.966;2023-07-13T00:46:10;6.93;;;3.37;;
6105;SDS011;3083;51.508;7.966;2023-07-13T00:48:41;6.73;;;3.50;;
6105;SDS011;3083;51.508;7.966;2023-07-13T00:51:12;5.93;;;3.40;;
6105;SDS011;3083;51.508;7.966;2023-07-13T00:53:40;8.53;;;3.53;;
6105;SDS011;3083;51.508;7.966;2023-07-13T00:56:08;5.90;;;3.53;;
6105;SDS011;3083;51.508;7.966;2023-07-13T00:58:35;10.60;;;4.43;;
6105;SDS011;3083;51.508;7.966;2023-07-13T01:01:02;11.90;;;3.77;;
6105;SDS011;3083;51.508;7.966;2023-07-13T01:03:29;6.17;;;3.60;;
6105;SDS011;3083;51.508;7.966;2023-07-13T01:05:56;6.97;;;3.20;;
6105;SDS011;3083;51.508;7.966;2023-07-13T01:08:23;6.73;;;3.70;;
6105;SDS011;3083;51.508;7.966;2023-07-13T01:10:51;6.67;;;3.50;;
6105;SDS011;3083;51.508;7.966;2023-07-13T01:13:20;6.57;;;2.83;;
6105;SDS011;3083;51.508;7.966;2023-07-13T01:15:47;7.00;;;3.77;;
6105;SDS011;3083;51.508;7.966;2023-07-13T01:18:17;6.47;;;2.90;;
6105;SDS011;3083;51.508;7.966;2023-07-13T01:20:50;6.73;;;3.20;;
6105;SDS011;3083;51.508;7.966;2023-07-13T01:23:18;7.63;;;3.47;;
6105;SDS011;3083;51.508;7.966;2023-07-13T01:25:45;7.37;;;3.27;;
6105;SDS011;3083;51.508;7.966;2023-07-13T01:28:12;8.03;;;3.20;;
6105;SDS011;3083;51.508;7.966;2023-07-13T01:30:42;8.13;;;3.30;;
6105;SDS011;3083;51.508;7.966;2023-07-13T01:33:11;8.10;;;3.37;;
6105;SDS011;3083;51.508;7.966;2023-07-13T01:35:39;7.00;;;3.10;;
6105;SDS011;3083;51.508;7.966;2023-07-13T01:38:08;8.43;;;3.40;;
6105;SDS011;3083;51.508;7.966;2023-07-13T01:40:36;5.20;;;2.57;;
6105;SDS011;3083;51.508;7.966;2023-07-13T01:43:03;6.03;;;2.80;;
6105;SDS011;3083;51.508;7.966;2023-07-13T01:45:31;5.87;;;3.13;;
6105;SDS011;3083;51.508;7.966;2023-07-13T01:47:58;6.57;;;2.87;;
6105;SDS011;3083;51.508;7.966;2023-07-13T01:50:25;5.87;;;3.30;;
6105;SDS011;3083;51.508;7.966;2023-07-13T01:52:52;8.43;;;3.30;;
6105;SDS011;3083;51.508;7.966;2023-07-13T01:55:20;8.03;;;3.30;;
6105;SDS011;3083;51.508;7.966;2023-07-13T01:57:48;7.30;;;2.77;;
6105;SDS011;3083;51.508;7.966;2023-07-13T02:00:15;8.57;;;3.23;;
6105;SDS011;3083;51.508;7.966;2023-07-13T02:02:43;6.30;;;3.23;;
6105;SDS011;3083;51.508;7.966;2023-07-13T02:05:10;7.17;;;2.87;;
6105;SDS011;3083;51.508;7.966;2023-07-13T02:07:37;13.23;;;3.07;;
6105;SDS011;3083;51.508;7.966;2023-07-13T02:10:04;9.50;;;3.87;;
6105;SDS011;3083;51.508;7.966;2023-07-13T02:12:34;7.00;;;2.80;;
6105;SDS011;3083;51.508;7.966;2023-07-13T02:15:00;6.00;;;2.80;;
6105;SDS011;3083;51.508;7.966;2023-07-13T02:17:27;5.40;;;2.70;;
6105;SDS011;3083;51.508;7.966;2023-07-13T02:19:54;8.03;;;3.37;;
6105;SDS011;3083;51.508;7.966;2023-07-13T02:22:20;6.53;;;2.97;;
6105;SDS011;3083;51.508;7.966;2023-07-13T02:24:48;7.37;;;2.73;;
6105;SDS011;3083;51.508;7.966;2023-07-13T02:27:15;9.07;;;3.03;;
6105;SDS011;3083;51.508;7.966;2023-07-13T02:29:43;6.03;;;2.37;;
6105;SDS011;3083;51.508;7.966;2023-07-13T02:32:10;6.10;;;2.97;;
6105;SDS011;3083;51.508;7.966;2023-07-13T02:34:37;5.57;;;2.80;;
6105;SDS011;3083;51.508;7.966;2023-07-13T02:37:04;9.07;;;3.13;;
6105;SDS011;3083;51.508;7.966;2023-07-13T02:39:31;6.53;;;2.90;;
6105;SDS011;3083;51.508;7.966;2023-07-13T02:41:58;6.60;;;2.70;;
6105;SDS011;3083;51.508;7.966;2023-07-13T02:44:26;7.37;;;3.30;;
6105;SDS011;3083;51.508;7.966;2023-07-13T02:46:54;6.43;;;2.93;;
6105;SDS011;3083;51.508;7.966;2023-07-13T02:49:21;4.77;;;2.90;;
6105;SDS011;3083;51.508;7.966;2023-07-13T02:51:48;5.80;;;2.50;;
6105;SDS011;3083;51.508;7.966;2023-07-13T02:54:15;5.93;;;2.67;;
6105;SDS011;3083;51.508;7.966;2023-07-13T02:56:42;10.50;;;3.23;;
6105;SDS011;3083;51.508;7.966;2023-07-13T02:59:09;11.73;;;2.80;;
6105;SDS011;3083;51.508;7.966;2023-07-13T03:01:37;7.80;;;2.50;;
6105;SDS011;3083;51.508;7.966;2023-07-13T03:04:05;7.83;;;3.00;;
6105;SDS011;3083;51.508;7.966;2023-07-13T03:06:32;4.10;;;2.20;;
6105;SDS011;3083;51.508;7.966;2023-07-13T03:09:00;7.80;;;2.57;;
6105;SDS011;3083;51.508;7.966;2023-07-13T03:11:27;7.70;;;2.73;;
6105;SDS011;3083;51.508;7.966;2023-07-13T03:13:54;5.17;;;2.43;;
6105;SDS011;3083;51.508;7.966;2023-07-13T03:16:21;6.10;;;2.40;;
6105;SDS011;3083;51.508;7.966;2023-07-13T03:18:48;7.30;;;2.63;;
6105;SDS011;3083;51.508;7.966;2023-07-13T03:21:16;5.80;;;2.40;;
6105;SDS011;3083;51.508;7.966;2023-07-13T03:23:43;5.20;;;2.17;;
6105;SDS011;3083;51.508;7.966;2023-07-13T03:26:11;6.00;;;2.30;;
6105;SDS011;3083;51.508;7.966;2023-07-13T03:28:39;8.10;;;2.77;;
6105;SDS011;3083;51.508;7.966;2023-07-13T03:31:08;6.20;;;2.20;;
6105;SDS011;3083;51.508;7.966;2023-07-13T03:33:37;5.10;;;2.40;;
6105;SDS011;3083;51.508;7.966;2023-07-13T03:36:04;9.90;;;3.27;;
6105;SDS011;3083;51.508;7.966;2023-07-13T03:38:34;4.97;;;2.37;;
6105;SDS011;3083;51.508;7.966;2023-07-13T03:41:01;10.10;;;3.10;;
6105;SDS011;3083;51.508;7.966;2023-07-13T03:43:28;7.47;;;2.80;;
6105;SDS011;3083;51.508;7.966;2023-07-13T03:45:55;4.93;;;2.10;;
6105;SDS011;3083;51.508;7.966;2023-07-13T03:48:22;8.10;;;2.60;;
6105;SDS011;3083;51.508;7.966;2023-07-13T03:50:49;5.03;;;2.23;;
6105;SDS011;3083;51.508;7.966;2023-07-13T03:53:16;9.50;;;2.80;;
6105;SDS011;3083;51.508;7.966;2023-07-13T03:55:45;5.60;;;2.30;;
6105;SDS011;3083;51.508;7.966;2023-07-13T03:58:25;7.20;;;2.60;;
6105;SDS011;3083;51.508;7.966;2023-07-13T04:00:54;5.10;;;2.30;;
6105;SDS011;3083;51.508;7.966;2023-07-13T04:03:22;6.50;;;2.50;;
6105;SDS011;3083;51.508;7.966;2023-07-13T04:05:49;7.73;;;2.90;;
6105;SDS011;3083;51.508;7.966;2023-07-13T04:08:16;6.30;;;2.30;;
6105;SDS011;3083;51.508;7.966;2023-07-13T04:10:44;7.60;;;2.90;;
6105;SDS011;3083;51.508;7.966;2023-07-13T04:13:11;9.60;;;2.70;;
6105;SDS011;3083;51.508;7.966;2023-07-13T04:15:40;5.00;;;2.03;;
6105;SDS011;3083;51.508;7.966;2023-07-13T04:18:06;6.20;;;2.40;;
6105;SDS011;3083;51.508;7.966;2023-07-13T04:20:34;6.70;;;2.47;;
6105;SDS011;3083;51.508;7.966;2023-07-13T04:23:01;8.33;;;2.63;;
6105;SDS011;3083;51.508;7.966;2023-07-13T04:25:28;8.40;;;2.73;;
6105;SDS011;3083;51.508;7.966;2023-07-13T04:27:56;6.23;;;2.57;;
6105;SDS011;3083;51.508;7.966;2023-07-13T04:30:23;4.97;;;2.50;;
6105;SDS011;3083;51.508;7.966;2023-07-13T04:32:50;8.30;;;2.40;;
6105;SDS011;3083;51.508;7.966;2023-07-13T04:35:18;8.30;;;2.53;;
6105;SDS011;3083;51.508;7.966;2023-07-13T04:37:46;7.03;;;2.40;;
6105;SDS011;3083;51.508;7.966;2023-07-13T04:40:15;6.87;;;2.37;;
6105;SDS011;3083;51.508;7.966;2023-07-13T04:42:42;7.87;;;2.93;;
6105;SDS011;3083;51.508;7.966;2023-07-13T04:45:11;7.43;;;2.53;;
6105;SDS011;3083;51.508;7.966;2023-07-13T04:47:38;6.70;;;2.57;;
6105;SDS011;3083;51.508;7.966;2023-07-13T04:50:06;6.13;;;2.60;;
6105;SDS011;3083;51.508;7.966;2023-07-13T04:52:34;10.10;;;2.70;;
6105;SDS011;3083;51.508;7.966;2023-07-13T04:55:01;7.57;;;2.50;;
6105;SDS011;3083;51.508;7.966;2023-07-13T04:57:28;7.37;;;2.30;;
6105;SDS011;3083;51.508;7.966;2023-07-13T04:59:54;6.50;;;2.60;;
6105;SDS011;3083;51.508;7.966;2023-07-13T05:02:23;8.47;;;2.80;;
6105;SDS011;3083;51.508;7.966;2023-07-13T05:04:50;6.03;;;2.67;;
6105;SDS011;3083;51.508;7.966;2023-07-13T05:07:16;5.70;;;2.20;;
6105;SDS011;3083;51.508;7.966;2023-07-13T05:09:43;6.57;;;2.50;;
6105;SDS011;3083;51.508;7.966;2023-07-13T05:12:10;7.37;;;2.50;;
6105;SDS011;3083;51.508;7.966;2023-07-13T05:14:37;9.50;;;2.87;;
6105;SDS011;3083;51.508;7.966;2023-07-13T05:17:04;13.43;;;2.60;;
6105;SDS011;3083;51.508;7.966;2023-07-13T05:19:32;6.53;;;2.53;;
6105;SDS011;3083;51.508;7.966;2023-07-13T05:21:59;5.13;;;2.30;;
6105;SDS011;3083;51.508;7.966;2023-07-13T05:24:27;7.47;;;2.20;;
6105;SDS011;3083;51.508;7.966;2023-07-13T05:26:54;8.53;;;3.03;;
6105;SDS011;3083;51.508;7.966;2023-07-13T05:29:22;5.83;;;2.00;;
6105;SDS011;3083;51.508;7.966;2023-07-13T05:31:49;6.83;;;2.43;;
6105;SDS011;3083;51.508;7.966;2023-07-13T05:34:16;6.90;;;2.50;;
6105;SDS011;3083;51.508;7.966;2023-07-13T05:36:44;8.60;;;2.27;;
6105;SDS011;3083;51.508;7.966;2023-07-13T05:39:11;6.87;;;2.63;;
6105;SDS011;3083;51.508;7.966;2023-07-13T05:41:39;7.63;;;2.27;;
6105;SDS011;3083;51.508;7.966;2023-07-13T05:44:06;5.13;;;2.23;;
6105;SDS011;3083;51.508;7.966;2023-07-13T05:46:33;9.70;;;2.60;;
6105;SDS011;3083;51.508;7.966;2023-07-13T05:49:00;8.20;;;2.67;;
6105;SDS011;3083;51.508;7.966;2023-07-13T05:51:27;6.50;;;2.10;;
6105;SDS011;3083;51.508;7.966;2023-07-13T05:53:55;6.43;;;2.50;;
6105;SDS011;3083;51.508;7.966;2023-07-13T05:56:22;7.07;;;2.43;;
6105;SDS011;3083;51.508;7.966;2023-07-13T05:58:50;5.90;;;2.17;;
6105;SDS011;3083;51.508;7.966;2023-07-13T06:01:17;6.70;;;2.30;;
6105;SDS011;3083;51.508;7.966;2023-07-13T06:03:45;4.60;;;2.40;;
6105;SDS011;3083;51.508;7.966;2023-07-13T06:06:12;6.40;;;2.13;;
6105;SDS011;3083;51.508;7.966;2023-07-13T06:08:39;5.03;;;2.00;;
6105;SDS011;3083;51.508;7.966;2023-07-13T06:11:09;6.40;;;2.50;;
6105;SDS011;3083;51.508;7.966;2023-07-13T06:13:39;5.27;;;2.40;;
6105;SDS011;3083;51.508;7.966;2023-07-13T06:16:06;5.63;;;2.10;;
6105;SDS011;3083;51.508;7.966;2023-07-13T06:18:34;6.30;;;2.17;;
6105;SDS011;3083;51.508;7.966;2023-07-13T06:21:05;6.63;;;2.43;;
6105;SDS011;3083;51.508;7.966;2023-07-13T06:23:32;7.57;;;2.30;;
6105;SDS011;3083;51.508;7.966;2023-07-13T06:25:59;4.37;;;2.00;;
6105;SDS011;3083;51.508;7.966;2023-07-13T06:28:28;8.10;;;2.37;;
6105;SDS011;3083;51.508;7.966;2023-07-13T06:30:55;8.33;;;2.27;;
6105;SDS011;3083;51.508;7.966;2023-07-13T06:33:22;6.63;;;2.10;;
6105;SDS011;3083;51.508;7.966;2023-07-13T06:35:48;6.30;;;2.10;;
6105;SDS011;3083;51.508;7.966;2023-07-13T06:38:16;6.80;;;3.03;;
6105;SDS011;3083;51.508;7.966;2023-07-13T06:40:42;5.67;;;2.30;;
6105;SDS011;3083;51.508;7.966;2023-07-13T06:43:09;9.83;;;2.70;;
6105;SDS011;3083;51.508;7.966;2023-07-13T06:45:41;5.73;;;2.00;;
6105;SDS011;3083;51.508;7.966;2023-07-13T06:48:10;5.77;;;2.30;;
6105;SDS011;3083;51.508;7.966;2023-07-13T06:50:37;5.57;;;2.50;;
6105;SDS011;3083;51.508;7.966;2023-07-13T06:53:04;7.83;;;2.17;;
6105;SDS011;3083;51.508;7.966;2023-07-13T06:55:31;6.77;;;2.50;;
6105;SDS011;3083;51.508;7.966;2023-07-13T06:57:58;6.87;;;2.53;;
6105;SDS011;3083;51.508;7.966;2023-07-13T07:00:25;7.03;;;2.60;;
6105;SDS011;3083;51.508;7.966;2023-07-13T07:02:53;8.00;;;2.33;;
6105;SDS011;3083;51.508;7.966;2023-07-13T07:05:20;7.33;;;3.00;;
6105;SDS011;3083;51.508;7.966;2023-07-13T07:07:47;6.50;;;2.33;;
6105;SDS011;3083;51.508;7.966;2023-07-13T07:10:14;7.30;;;2.80;;
6105;SDS011;3083;51.508;7.966;2023-07-13T07:12:41;10.20;;;2.90;;
6105;SDS011;3083;51.508;7.966;2023-07-13T07:15:08;7.23;;;2.47;;
6105;SDS011;3083;51.508;7.966;2023-07-13T07:17:35;7.37;;;2.53;;
6105;SDS011;3083;51.508;7.966;2023-07-13T07:20:04;5.93;;;2.80;;
6105;SDS011;3083;51.508;7.966;2023-07-13T07:22:31;7.50;;;2.90;;
6105;SDS011;3083;51.508;7.966;2023-07-13T07:24:59;6.37;;;2.90;;
6105;SDS011;3083;51.508;7.966;2023-07-13T07:27:26;7.33;;;3.17;;
6105;SDS011;3083;51.508;7.966;2023-07-13T07:29:53;6.40;;;2.77;;
6105;SDS011;3083;51.508;7.966;2023-07-13T07:32:20;5.90;;;2.70;;
6105;SDS011;3083;51.508;7.966;2023-07-13T07:34:46;7.07;;;2.77;;
6105;SDS011;3083;51.508;7.966;2023-07-13T07:37:15;7.20;;;2.87;;
6105;SDS011;3083;51.508;7.966;2023-07-13T07:39:42;6.13;;;2.43;;
6105;SDS011;3083;51.508;7.966;2023-07-13T07:42:10;4.93;;;2.70;;
6105;SDS011;3083;51.508;7.966;2023-07-13T07:44:37;8.47;;;3.50;;
6105;SDS011;3083;51.508;7.966;2023-07-13T07:47:04;7.33;;;2.83;;
6105;SDS011;3083;51.508;7.966;2023-07-13T07:49:32;6.93;;;2.80;;
6105;SDS011;3083;51.508;7.966;2023-07-13T07:51:58;5.73;;;2.57;;
6105;SDS011;3083;51.508;7.966;2023-07-13T07:54:27;7.00;;;3.20;;
6105;SDS011;3083;51.508;7.966;2023-07-13T07:56:54;6.90;;;3.00;;
6105;SDS011;3083;51.508;7.966;2023-07-13T07:59:20;10.70;;;3.07;;
6105;SDS011;3083;51.508;7.966;2023-07-13T08:01:47;6.90;;;3.03;;
6105;SDS011;3083;51.508;7.966;2023-07-13T08:04:15;7.47;;;3.20;;
6105;SDS011;3083;51.508;7.966;2023-07-13T08:06:42;9.00;;;3.33;;
6105;SDS011;3083;51.508;7.966;2023-07-13T08:09:09;9.70;;;3.07;;
6105;SDS011;3083;51.508;7.966;2023-07-13T08:11:37;6.60;;;3.07;;
6105;SDS011;3083;51.508;7.966;2023-07-13T08:14:04;9.80;;;3.40;;
6105;SDS011;3083;51.508;7.966;2023-07-13T08:16:31;8.07;;;3.17;;
6105;SDS011;3083;51.508;7.966;2023-07-13T08:18:58;8.63;;;3.40;;
6105;SDS011;3083;51.508;7.966;2023-07-13T08:21:25;8.57;;;3.03;;
6105;SDS011;3083;51.508;7.966;2023-07-13T08:23:53;9.03;;;3.20;;
6105;SDS011;3083;51.508;7.966;2023-07-13T08:26:20;5.70;;;3.07;;
6105;SDS011;3083;51.508;7.966;2023-07-13T08:28:48;8.00;;;3.17;;
6105;SDS011;3083;51.508;7.966;2023-07-13T08:31:15;10.67;;;4.07;;
6105;SDS011;3083;51.508;7.966;2023-07-13T08:33:42;5.80;;;3.13;;
6105;SDS011;3083;51.508;7.966;2023-07-13T08:36:09;9.13;;;3.17;;
6105;SDS011;3083;51.508;7.966;2023-07-13T08:38:35;10.67;;;3.27;;
6105;SDS011;3083;51.508;7.966;2023-07-13T08:41:09;4.50;;;2.73;;
6105;SDS011;3083;51.508;7.966;2023-07-13T08:43:38;7.30;;;3.00;;
6105;SDS011;3083;51.508;7.966;2023-07-13T08:46:07;11.70;;;3.27;;
6105;SDS011;3083;51.508;7.966;2023-07-13T08:48:38;6.43;;;2.97;;
6105;SDS011;3083;51.508;7.966;2023-07-13T08:51:11;9.10;;;3.17;;
6105;SDS011;3083;51.508;7.966;2023-07-13T08:53:48;6.30;;;3.27;;
6105;SDS011;3083;51.508;7.966;2023-07-13T08:56:19;9.00;;;3.00;;
6105;SDS011;3083;51.508;7.966;2023-07-13T08:58:48;8.27;;;3.10;;
6105;SDS011;3083;51.508;7.966;2023-07-13T09:01:22;7.00;;;2.90;;
6105;SDS011;3083;51.508;7.966;2023-07-13T09:03:55;5.90;;;3.30;;
6105;SDS011;3083;51.508;7.966;2023-07-13T09:06:38;6.73;;;2.97;;
6105;SDS011;3083;51.508;7.966;2023-07-13T09:09:18;11.43;;;3.10;;
6105;SDS011;3083;51.508;7.966;2023-07-13T09:11:53;7.40;;;3.20;;
6105;SDS011;3083;51.508;7.966;2023-07-13T09:14:33;5.57;;;2.83;;
6105;SDS011;3083;51.508;7.966;2023-07-13T09:17:10;8.17;;;2.67;;
6105;SDS011;3083;51.508;7.966;2023-07-13T09:19:42;7.40;;;2.87;;
6105;SDS011;3083;51.508;7.966;2023-07-13T09:22:13;6.20;;;2.80;;
6105;SDS011;3083;51.508;7.966;2023-07-13T09:24:47;6.00;;;2.73;;
6105;SDS011;3083;51.508;7.966;2023-07-13T09:27:21;5.17;;;2.63;;
6105;SDS011;3083;51.508;7.966;2023-07-13T09:29:54;6.17;;;2.63;;
6105;SDS011;3083;51.508;7.966;2023-07-13T09:32:29;6.90;;;2.93;;
6105;SDS011;3083;51.508;7.966;2023-07-13T09:34:57;8.67;;;3.10;;
6105;SDS011;3083;51.508;7.966;2023-07-13T09:37:27;7.17;;;2.93;;
6105;SDS011;3083;51.508;7.966;2023-07-13T09:39:58;6.00;;;2.83;;
6105;SDS011;3083;51.508;7.966;2023-07-13T09:42:27;7.73;;;2.90;;
6105;SDS011;3083;51.508;7.966;2023-07-13T09:44:55;6.80;;;2.87;;
6105;SDS011;3083;51.508;7.966;2023-07-13T09:47:23;6.00;;;3.17;;
6105;SDS011;3083;51.508;7.966;2023-07-13T09:49:56;6.73;;;3.30;;
6105;SDS011;3083;51.508;7.966;2023-07-13T09:52:26;8.37;;;3.10;;
6105;SDS011;3083;51.508;7.966;2023-07-13T09:54:53;10.07;;;3.03;;
6105;SDS011;3083;51.508;7.966;2023-07-13T09:57:24;7.50;;;2.93;;
6105;SDS011;3083;51.508;7.966;2023-07-13T09:59:53;4.50;;;2.93;;
6105;SDS011;3083;51.508;7.966;2023-07-13T10:02:24;5.50;;;2.80;;
6105;SDS011;3083;51.508;7.966;2023-07-13T10:04:58;7.67;;;3.20;;
6105;SDS011;3083;51.508;7.966;2023-07-13T10:07:28;4.87;;;3.10;;
6105;SDS011;3083;51.508;7.966;2023-07-13T10:09:56;7.33;;;3.00;;
6105;SDS011;3083;51.508;7.966;2023-07-13T10:12:26;6.80;;;3.40;;
6105;SDS011;3083;51.508;7.966;2023-07-13T10:14:54;7.57;;;3.20;;
6105;SDS011;3083;51.508;7.966;2023-07-13T10:17:26;9.37;;;3.30;;
6105;SDS011;3083;51.508;7.966;2023-07-13T10:19:57;5.87;;;3.23;;
6105;SDS011;3083;51.508;7.966;2023-07-13T10:22:32;5.73;;;3.33;;
6105;SDS011;3083;51.508;7.966;2023-07-13T10:25:13;4.93;;;3.30;;
6105;SDS011;3083;51.508;7.966;2023-07-13T10:27:43;6.17;;;3.43;;
6105;SDS011;3083;51.508;7.966;2023-07-13T10:30:12;7.20;;;4.00;;
6105;SDS011;3083;51.508;7.966;2023-07-13T10:32:43;8.87;;;3.23;;
6105;SDS011;3083;51.508;7.966;2023-07-13T10:35:12;6.70;;;3.10;;
6105;SDS011;3083;51.508;7.966;2023-07-13T10:37:44;9.77;;;3.53;;
6105;SDS011;3083;51.508;7.966;2023-07-13T10:40:16;6.60;;;3.17;;
6105;SDS011;3083;51.508;7.966;2023-07-13T10:42:49;5.10;;;3.13;;
6105;SDS011;3083;51.508;7.966;2023-07-13T10:45:19;5.33;;;3.30;;
6105;SDS011;3083;51.508;7.966;2023-07-13T10:47:48;5.93;;;3.57;;
6105;SDS011;3083;51.508;7.966;2023-07-13T10:50:20;7.73;;;3.43;;
6105;SDS011;3083;51.508;7.966;2023-07-13T10:52:50;5.20;;;3.17;;
6105;SDS011;3083;51.508;7.966;2023-07-13T10:55:36;6.30;;;3.30;;
6105;SDS011;3083;51.508;7.966;2023-07-13T10:58:11;6.40;;;3.70;;
6105;SDS011;3083;51.508;7.966;2023-07-13T11:00:44;5.10;;;2.90;;
6105;SDS011;3083;51.508;7.966;2023-07-13T11:03:15;4.67;;;2.80;;
6105;SDS011;3083;51.508;7.966;2023-07-13T11:05:46;10.20;;;3.20;;
6105;SDS011;3083;51.508;7.966;2023-07-13T11:08:18;6.20;;;3.23;;
6105;SDS011;3083;51.508;7.966;2023-07-13T11:10:52;7.70;;;3.00;;
6105;SDS011;3083;51.508;7.966;2023-07-13T11:13:36;7.60;;;2.87;;
6105;SDS011;3083;51.508;7.966;2023-07-13T11:19:25;7.67;;;2.97;;
6105;SDS011;3083;51.508;7.966;2023-07-13T11:22:10;6.57;;;3.20;;
6105;SDS011;3083;51.508;7.966;2023-07-13T11:24:49;8.30;;;3.13;;
6105;SDS011;3083;51.508;7.966;2023-07-13T11:27:37;7.10;;;3.10;;
6105;SDS011;3083;51.508;7.966;2023-07-13T11:30:08;6.30;;;3.30;;
6105;SDS011;3083;51.508;7.966;2023-07-13T11:33:02;5.53;;;3.00;;
6105;SDS011;3083;51.508;7.966;2023-07-13T11:35:34;6.73;;;3.30;;
6105;SDS011;3083;51.508;7.966;2023-07-13T11:38:09;6.97;;;3.10;;
6105;SDS011;3083;51.508;7.966;2023-07-13T11:40:41;7.13;;;3.03;;
6105;SDS011;3083;51.508;7.966;2023-07-13T11:43:11;6.53;;;3.23;;
6105;SDS011;3083;51.508;7.966;2023-07-13T11:45:40;5.37;;;2.70;;
6105;SDS011;3083;51.508;7.966;2023-07-13T11:48:17;5.60;;;2.63;;
6105;SDS011;3083;51.508;7.966;2023-07-13T11:50:49;7.60;;;3.43;;
6105;SDS011;3083;51.508;7.966;2023-07-13T11:53:24;8.03;;;2.90;;
6105;SDS011;3083;51.508;7.966;2023-07-13T11:55:54;10.63;;;3.53;;
6105;SDS011;3083;51.508;7.966;2023-07-13T11:58:23;6.23;;;2.90;;
6105;SDS011;3083;51.508;7.966;2023-07-13T12:00:53;10.03;;;2.83;;
6105;SDS011;3083;51.508;7.966;2023-07-13T12:03:22;5.93;;;2.63;;
6105;SDS011;3083;51.508;7.966;2023-07-13T12:05:58;10.33;;;3.03;;
6105;SDS011;3083;51.508;7.966;2023-07-13T12:08:27;6.40;;;2.60;;
6105;SDS011;3083;51.508;7.966;2023-07-13T12:11:03;8.53;;;3.00;;
6105;SDS011;3083;51.508;7.966;2023-07-13T12:13:35;8.70;;;2.73;;
6105;SDS011;3083;51.508;7.966;2023-07-13T12:16:09;12.50;;;3.10;;
6105;SDS011;3083;51.508;7.966;2023-07-13T12:18:38;10.10;;;2.90;;
6105;SDS011;3083;51.508;7.966;2023-07-13T12:21:09;9.77;;;3.10;;
6105;SDS011;3083;51.508;7.966;2023-07-13T12:23:42;8.67;;;3.30;;
6105;SDS011;3083;51.508;7.966;2023-07-13T12:26:10;7.90;;;2.83;;
6105;SDS011;3083;51.508;7.966;2023-07-13T12:28:43;5.60;;;2.50;;
6105;SDS011;3083;51.508;7.966;2023-07-13T12:31:23;4.70;;;2.10;;
6105;SDS011;3083;51.508;7.966;2023-07-13T12:33:56;4.30;;;2.33;;
6105;SDS011;3083;51.508;7.966;2023-07-13T12:36:24;7.30;;;2.80;;
6105;SDS011;3083;51.508;7.966;2023-07-13T12:38:53;5.90;;;2.43;;
6105;SDS011;3083;51.508;7.966;2023-07-13T12:41:20;8.40;;;2.60;;
6105;SDS011;3083;51.508;7.966;2023-07-13T12:43:48;7.43;;;2.70;;
6105;SDS011;3083;51.508;7.966;2023-07-13T12:46:16;4.40;;;2.33;;
6105;SDS011;3083;51.508;7.966;2023-07-13T12:48:48;6.40;;;2.60;;
6105;SDS011;3083;51.508;7.966;2023-07-13T12:51:15;5.53;;;2.50;;
6105;SDS011;3083;51.508;7.966;2023-07-13T12:53:43;6.20;;;2.57;;
6105;SDS011;3083;51.508;7.966;2023-07-13T12:56:18;5.50;;;2.70;;
6105;SDS011;3083;51.508;7.966;2023-07-13T12:58:48;5.07;;;2.77;;
6105;SDS011;3083;51.508;7.966;2023-07-13T13:01:19;5.50;;;2.53;;
6105;SDS011;3083;51.508;7.966;2023-07-13T13:03:47;8.10;;;2.10;;
6105;SDS011;3083;51.508;7.966;2023-07-13T13:06:20;5.30;;;2.10;;
6105;SDS011;3083;51.508;7.966;2023-07-13T13:08:50;6.10;;;2.43;;
6105;SDS011;3083;51.508;7.966;2023-07-13T13:11:20;5.90;;;2.57;;
6105;SDS011;3083;51.508;7.966;2023-07-13T13:13:48;6.00;;;2.77;;
6105;SDS011;3083;51.508;7.966;2023-07-13T13:16:17;7.00;;;2.50;;
6105;SDS011;3083;51.508;7.966;2023-07-13T13:18:47;4.80;;;2.70;;
6105;SDS011;3083;51.508;7.966;2023-07-13T13:21:15;8.20;;;2.83;;
6105;SDS011;3083;51.508;7.966;2023-07-13T13:23:42;4.50;;;2.27;;
6105;SDS011;3083;51.508;7.966;2023-07-13T13:26:11;4.90;;;2.57;;
6105;SDS011;3083;51.508;7.966;2023-07-13T13:28:41;3.97;;;2.30;;
6105;SDS011;3083;51.508;7.966;2023-07-13T13:31:10;4.33;;;2.20;;
6105;SDS011;3083;51.508;7.966;2023-07-13T13:33:37;5.77;;;2.67;;
6105;SDS011;3083;51.508;7.966;2023-07-13T13:36:08;6.60;;;2.23;;
6105;SDS011;3083;51.508;7.966;2023-07-13T13:38:40;6.57;;;2.60;;
6105;SDS011;3083;51.508;7.966;2023-07-13T13:41:09;6.23;;;2.67;;
6105;SDS011;3083;51.508;7.966;2023-07-13T13:43:38;4.50;;;2.37;;
6105;SDS011;3083;51.508;7.966;2023-07-13T13:46:13;8.30;;;3.23;;
6105;SDS011;3083;51.508;7.966;2023-07-13T13:48:42;5.60;;;2.50;;
6105;SDS011;3083;51.508;7.966;2023-07-13T13:51:14;4.67;;;2.50;;
6105;SDS011;3083;51.508;7.966;2023-07-13T13:53:43;5.30;;;2.90;;
6105;SDS011;3083;51.508;7.966;2023-07-13T13:56:10;5.83;;;2.40;;
6105;SDS011;3083;51.508;7.966;2023-07-13T13:58:37;4.93;;;2.50;;
6105;SDS011;3083;51.508;7.966;2023-07-13T14:01:04;4.93;;;2.53;;
6105;SDS011;3083;51.508;7.966;2023-07-13T14:03:39;4.77;;;2.87;;
6105;SDS011;3083;51.508;7.966;2023-07-13T14:06:07;4.90;;;2.50;;
6105;SDS011;3083;51.508;7.966;2023-07-13T14:08:37;7.40;;;2.93;;
6105;SDS011;3083;51.508;7.966;2023-07-13T14:11:04;6.70;;;2.63;;
6105;SDS011;3083;51.508;7.966;2023-07-13T14:13:34;5.70;;;2.70;;
6105;SDS011;3083;51.508;7.966;2023-07-13T14:16:07;5.33;;;2.80;;
6105;SDS011;3083;51.508;7.966;2023-07-13T14:18:42;6.83;;;3.37;;
6105;SDS011;3083;51.508;7.966;2023-07-13T14:21:13;4.93;;;3.30;;
6105;SDS011;3083;51.508;7.966;2023-07-13T14:23:41;7.10;;;3.70;;
6105;SDS011;3083;51.508;7.966;2023-07-13T14:26:10;8.53;;;3.50;;
6105;SDS011;3083;51.508;7.966;2023-07-13T14:28:39;6.97;;;3.60;;
6105;SDS011;3083;51.508;7.966;2023-07-13T14:31:08;6.37;;;3.73;;
6105;SDS011;3083;51.508;7.966;2023-07-13T14:33:37;5.63;;;3.63;;
6105;SDS011;3083;51.508;7.966;2023-07-13T14:36:22;9.90;;;4.50;;
6105;SDS011;3083;51.508;7.966;2023-07-13T14:38:54;7.30;;;4.80;;
6105;SDS011;3083;51.508;7.966;2023-07-13T14:41:21;9.93;;;5.00;;
6105;SDS011;3083;51.508;7.966;2023-07-13T14:43:48;7.43;;;5.37;;
6105;SDS011;3083;51.508;7.966;2023-07-13T14:46:21;7.53;;;5.10;;
6105;SDS011;3083;51.508;7.966;2023-07-13T14:48:58;7.83;;;5.93;;
6105;SDS011;3083;51.508;7.966;2023-07-13T14:51:28;8.20;;;5.43;;
6105;SDS011;3083;51.508;7.966;2023-07-13T14:53:56;9.47;;;5.70;;
6105;SDS011;3083;51.508;7.966;2023-07-13T14:56:24;7.93;;;5.73;;
6105;SDS011;3083;51.508;7.966;2023-07-13T14:58:51;12.23;;;6.30;;
6105;SDS011;3083;51.508;7.966;2023-07-13T15:01:18;10.03;;;6.17;;
6105;SDS011;3083;51.508;7.966;2023-07-13T15:03:48;10.83;;;6.27;;
6105;SDS011;3083;51.508;7.966;2023-07-13T15:06:18;8.00;;;5.37;;
6105;SDS011;3083;51.508;7.966;2023-07-13T15:08:45;9.80;;;6.30;;
6105;SDS011;3083;51.508;7.966;2023-07-13T15:11:13;10.67;;;5.90;;
6105;SDS011;3083;51.508;7.966;2023-07-13T15:13:40;7.10;;;5.43;;
6105;SDS011;3083;51.508;7.966;2023-07-13T15:16:10;9.57;;;5.57;;
6105;SDS011;3083;51.508;7.966;2023-07-13T15:18:43;10.53;;;5.50;;
6105;SDS011;3083;51.508;7.966;2023-07-13T15:21:11;7.63;;;5.13;;
6105;SDS011;3083;51.508;7.966;2023-07-13T15:23:45;9.70;;;6.27;;
6105;SDS011;3083;51.508;7.966;2023-07-13T15:26:12;10.00;;;5.40;;
6105;SDS011;3083;51.508;7.966;2023-07-13T15:28:40;7.43;;;4.90;;
6105;SDS011;3083;51.508;7.966;2023-07-13T15:31:16;7.10;;;4.50;;